SIA237 WSSS-YMML
Flight info
| Callsign | SIA237 |
|---|---|
| Flight time | N/A |
| Altitude | 35000 |
| Route | IDBUD1B IDBUD T24 SURGA M635 ATMAP/N0492F370 A576 CIN DCT GOMAP DCT AGAGO A461 LEC/N0476F390 H119 ARBEY ARBE8A |
| Aircraft | A388/J-SDE1E2E3GHIJ1J2J4J5M1P2RWXYZ/LB1D1 |
Departure
| Time | 2026-05-07 09:34 |
|---|---|
| Airport | Singapore Changi Airport (WSSS) |
Arrival
| Time | N/A |
|---|---|
| Airport | Melbourne Airport (YMML) |
| Time | Latitude | Longitude | Altitude | Speed | Heading |
|---|---|---|---|---|---|
| 2026-05-07 09:03 | 1.35488 | 103.98395 | 35 ft | 0 kts | 95° |
| 2026-05-07 09:21 | 1.35489 | 103.98386 | 35 ft | 4 kts | 95° |
| 2026-05-07 09:21 | 1.35491 | 103.98359 | 35 ft | 4 kts | 95° |
| 2026-05-07 09:21 | 1.35494 | 103.98332 | 35 ft | 3 kts | 95° |
| 2026-05-07 09:22 | 1.35495 | 103.98312 | 35 ft | 4 kts | 87° |
| 2026-05-07 09:22 | 1.35490 | 103.98293 | 34 ft | 4 kts | 52° |
| 2026-05-07 09:22 | 1.35476 | 103.98284 | 32 ft | 4 kts | 24° |
| 2026-05-07 09:22 | 1.35452 | 103.98273 | 34 ft | 4 kts | 24° |
| 2026-05-07 09:23 | 1.35445 | 103.98270 | 33 ft | 0 kts | 24° |
| 2026-05-07 09:25 | 1.35453 | 103.98273 | 34 ft | 4 kts | 24° |
| 2026-05-07 09:26 | 1.35500 | 103.98294 | 35 ft | 10 kts | 23° |
| 2026-05-07 09:26 | 1.35585 | 103.98330 | 35 ft | 16 kts | 22° |
| 2026-05-07 09:26 | 1.35700 | 103.98378 | 34 ft | 19 kts | 22° |
| 2026-05-07 09:26 | 1.35824 | 103.98430 | 35 ft | 20 kts | 23° |
| 2026-05-07 09:27 | 1.35962 | 103.98489 | 35 ft | 21 kts | 22° |
| 2026-05-07 09:27 | 1.36095 | 103.98544 | 35 ft | 19 kts | 22° |
| 2026-05-07 09:27 | 1.36335 | 103.98645 | 35 ft | 19 kts | 22° |
| 2026-05-07 09:28 | 1.36473 | 103.98704 | 35 ft | 24 kts | 23° |
| 2026-05-07 09:28 | 1.36632 | 103.98771 | 35 ft | 25 kts | 23° |
| 2026-05-07 09:28 | 1.36789 | 103.98837 | 35 ft | 24 kts | 23° |
| 2026-05-07 09:28 | 1.36917 | 103.98891 | 35 ft | 12 kts | 22° |
| 2026-05-07 09:29 | 1.36965 | 103.98927 | 35 ft | 6 kts | 86° |
| 2026-05-07 09:29 | 1.36954 | 103.98984 | 35 ft | 11 kts | 111° |
| 2026-05-07 09:29 | 1.36920 | 103.99067 | 35 ft | 15 kts | 113° |
| 2026-05-07 09:29 | 1.36876 | 103.99169 | 35 ft | 18 kts | 113° |
| 2026-05-07 09:30 | 1.36823 | 103.99292 | 35 ft | 21 kts | 113° |
| 2026-05-07 09:30 | 1.36764 | 103.99430 | 35 ft | 22 kts | 113° |
| 2026-05-07 09:30 | 1.36707 | 103.99563 | 35 ft | 20 kts | 113° |
| 2026-05-07 09:30 | 1.36656 | 103.99681 | 35 ft | 18 kts | 113° |
| 2026-05-07 09:31 | 1.36614 | 103.99780 | 35 ft | 14 kts | 113° |
| 2026-05-07 09:31 | 1.36577 | 103.99839 | 35 ft | 7 kts | 161° |
| 2026-05-07 09:31 | 1.36519 | 103.99835 | 35 ft | 11 kts | 204° |
| 2026-05-07 09:31 | 1.36439 | 103.99803 | 35 ft | 10 kts | 191° |
| 2026-05-07 09:32 | 1.36394 | 103.99834 | 35 ft | 10 kts | 124° |
| 2026-05-07 09:32 | 1.36345 | 103.99870 | 35 ft | 9 kts | 164° |
| 2026-05-07 09:32 | 1.36284 | 103.99882 | 35 ft | 10 kts | 171° |
| 2026-05-07 09:32 | 1.36207 | 103.99891 | 35 ft | 11 kts | 183° |
| 2026-05-07 09:33 | 1.36119 | 103.99864 | 35 ft | 22 kts | 202° |
| 2026-05-07 09:33 | 1.35741 | 103.99707 | 35 ft | 96 kts | 202° |
| 2026-05-07 09:33 | 1.34934 | 103.99368 | 35 ft | 152 kts | 203° |
| 2026-05-07 09:33 | 1.33855 | 103.98917 | 139 ft | 177 kts | 199° |
| 2026-05-07 09:34 | 1.32750 | 103.98438 | 696 ft | 171 kts | 201° |
| 2026-05-07 09:34 | 1.31639 | 103.97971 | 1166 ft | 174 kts | 202° |
| 2026-05-07 09:34 | 1.30523 | 103.97514 | 1690 ft | 174 kts | 202° |
| 2026-05-07 09:34 | 1.29363 | 103.97026 | 1914 ft | 189 kts | 202° |
| 2026-05-07 09:35 | 1.28105 | 103.96486 | 2042 ft | 204 kts | 203° |
| 2026-05-07 09:35 | 1.26767 | 103.95908 | 2145 ft | 215 kts | 203° |
| 2026-05-07 09:35 | 1.25345 | 103.95304 | 2265 ft | 236 kts | 202° |
| 2026-05-07 09:35 | 1.23724 | 103.94698 | 2458 ft | 258 kts | 192° |
| 2026-05-07 09:36 | 1.21929 | 103.94639 | 2962 ft | 265 kts | 170° |
| 2026-05-07 09:36 | 1.20131 | 103.95089 | 3586 ft | 269 kts | 165° |
| 2026-05-07 09:36 | 1.18312 | 103.95554 | 4273 ft | 270 kts | 166° |
| 2026-05-07 09:36 | 1.16474 | 103.96004 | 4942 ft | 273 kts | 166° |
| 2026-05-07 09:37 | 1.14620 | 103.96455 | 5599 ft | 276 kts | 166° |
| 2026-05-07 09:37 | 1.12747 | 103.96912 | 6239 ft | 278 kts | 166° |
| 2026-05-07 09:37 | 1.10906 | 103.97524 | 6852 ft | 280 kts | 154° |
| 2026-05-07 09:37 | 1.09246 | 103.98542 | 7474 ft | 281 kts | 141° |
| 2026-05-07 09:38 | 1.07712 | 103.99768 | 8077 ft | 284 kts | 141° |
| 2026-05-07 09:38 | 1.06145 | 104.00988 | 8699 ft | 287 kts | 142° |
| 2026-05-07 09:38 | 1.04551 | 104.02208 | 9281 ft | 289 kts | 142° |
| 2026-05-07 09:38 | 1.03089 | 104.03585 | 9868 ft | 290 kts | 127° |
| 2026-05-07 09:39 | 1.02004 | 104.05325 | 10142 ft | 304 kts | 113° |
| 2026-05-07 09:39 | 1.01192 | 104.07332 | 10289 ft | 320 kts | 111° |
| 2026-05-07 09:39 | 1.00327 | 104.09437 | 10437 ft | 335 kts | 112° |
| 2026-05-07 09:39 | 0.99403 | 104.11612 | 10788 ft | 342 kts | 112° |
| 2026-05-07 09:40 | 0.98468 | 104.13804 | 11303 ft | 344 kts | 112° |
| 2026-05-07 09:40 | 0.97535 | 104.16015 | 11788 ft | 348 kts | 112° |
| 2026-05-07 09:40 | 0.96595 | 104.18253 | 12294 ft | 350 kts | 112° |
| 2026-05-07 09:40 | 0.95648 | 104.20507 | 12806 ft | 353 kts | 112° |
| 2026-05-07 09:41 | 0.94639 | 104.22758 | 13281 ft | 356 kts | 117° |
| 2026-05-07 09:41 | 0.93355 | 104.24885 | 13772 ft | 359 kts | 122° |
| 2026-05-07 09:41 | 0.92015 | 104.27005 | 14225 ft | 362 kts | 121° |
| 2026-05-07 09:41 | 0.90680 | 104.29145 | 14686 ft | 364 kts | 121° |
| 2026-05-07 09:42 | 0.89339 | 104.31304 | 15127 ft | 367 kts | 121° |
| 2026-05-07 09:42 | 0.87991 | 104.33474 | 15577 ft | 369 kts | 121° |
| 2026-05-07 09:42 | 0.86630 | 104.35662 | 16021 ft | 372 kts | 121° |
| 2026-05-07 09:42 | 0.85262 | 104.37862 | 16456 ft | 374 kts | 121° |
| 2026-05-07 09:43 | 0.83882 | 104.40077 | 16883 ft | 377 kts | 121° |
| 2026-05-07 09:43 | 0.82492 | 104.42310 | 17335 ft | 379 kts | 121° |
| 2026-05-07 09:43 | 0.80995 | 104.44488 | 17756 ft | 382 kts | 124° |
| 2026-05-07 09:43 | 0.79445 | 104.46653 | 18162 ft | 384 kts | 124° |
| 2026-05-07 09:44 | 0.77893 | 104.48835 | 18522 ft | 386 kts | 124° |
| 2026-05-07 09:44 | 0.76333 | 104.51033 | 18858 ft | 389 kts | 124° |
| 2026-05-07 09:44 | 0.74763 | 104.53247 | 19202 ft | 391 kts | 124° |
| 2026-05-07 09:44 | 0.73034 | 104.55347 | 19535 ft | 395 kts | 136° |
| 2026-05-07 09:45 | 0.70812 | 104.56985 | 19879 ft | 400 kts | 150° |
| 2026-05-07 09:45 | 0.68231 | 104.58039 | 20220 ft | 404 kts | 163° |
| 2026-05-07 09:45 | 0.65519 | 104.58808 | 20530 ft | 406 kts | 162° |
| 2026-05-07 09:45 | 0.62801 | 104.59607 | 20864 ft | 408 kts | 162° |
| 2026-05-07 09:46 | 0.60072 | 104.60423 | 21182 ft | 411 kts | 162° |
| 2026-05-07 09:46 | 0.57326 | 104.61244 | 21506 ft | 413 kts | 162° |
| 2026-05-07 09:46 | 0.54566 | 104.62068 | 21811 ft | 415 kts | 162° |
| 2026-05-07 09:46 | 0.51797 | 104.62893 | 22142 ft | 417 kts | 162° |
| 2026-05-07 09:47 | 0.49094 | 104.63939 | 22413 ft | 417 kts | 149° |
| 2026-05-07 09:47 | 0.46740 | 104.65618 | 22752 ft | 416 kts | 135° |
| 2026-05-07 09:47 | 0.44888 | 104.67828 | 23053 ft | 416 kts | 121° |
| 2026-05-07 09:47 | 0.43445 | 104.70340 | 23332 ft | 418 kts | 118° |
| 2026-05-07 09:48 | 0.42030 | 104.72882 | 23591 ft | 420 kts | 118° |
| 2026-05-07 09:48 | 0.40599 | 104.75422 | 23865 ft | 421 kts | 118° |
| 2026-05-07 09:48 | 0.39145 | 104.77971 | 24117 ft | 423 kts | 118° |
| 2026-05-07 09:48 | 0.37679 | 104.80520 | 24363 ft | 424 kts | 119° |
| 2026-05-07 09:49 | 0.36201 | 104.83080 | 24631 ft | 426 kts | 119° |
| 2026-05-07 09:49 | 0.34718 | 104.85645 | 24888 ft | 427 kts | 119° |
| 2026-05-07 09:49 | 0.33229 | 104.88220 | 25131 ft | 429 kts | 119° |
| 2026-05-07 09:49 | 0.31733 | 104.90807 | 25366 ft | 431 kts | 119° |
| 2026-05-07 09:50 | 0.30233 | 104.93400 | 25640 ft | 432 kts | 119° |
| 2026-05-07 09:50 | 0.28726 | 104.96008 | 25881 ft | 434 kts | 119° |
| 2026-05-07 09:50 | 0.27213 | 104.98624 | 26137 ft | 436 kts | 119° |
| 2026-05-07 09:50 | 0.25696 | 105.01249 | 26399 ft | 437 kts | 119° |
| 2026-05-07 09:51 | 0.24687 | 105.02995 | 26571 ft | 439 kts | 119° |
| 2026-05-07 09:51 | 0.23160 | 105.05636 | 26845 ft | 440 kts | 119° |
| 2026-05-07 09:51 | 0.21627 | 105.08287 | 27108 ft | 442 kts | 119° |
| 2026-05-07 09:51 | 0.20085 | 105.10953 | 27389 ft | 444 kts | 119° |
| 2026-05-07 09:52 | 0.18537 | 105.13630 | 27657 ft | 446 kts | 119° |
| 2026-05-07 09:52 | 0.16985 | 105.16313 | 27944 ft | 448 kts | 119° |
| 2026-05-07 09:52 | 0.15424 | 105.19012 | 28248 ft | 449 kts | 119° |
| 2026-05-07 09:52 | 0.13857 | 105.21723 | 28543 ft | 451 kts | 119° |
| 2026-05-07 09:53 | 0.12284 | 105.24443 | 28839 ft | 454 kts | 119° |
| 2026-05-07 09:53 | 0.10701 | 105.27179 | 29149 ft | 456 kts | 119° |
| 2026-05-07 09:53 | 0.09112 | 105.29928 | 29472 ft | 458 kts | 119° |
| 2026-05-07 09:53 | 0.07513 | 105.32691 | 29805 ft | 460 kts | 119° |
| 2026-05-07 09:54 | 0.05910 | 105.35464 | 30098 ft | 462 kts | 119° |
| 2026-05-07 09:54 | 0.04300 | 105.38247 | 30389 ft | 464 kts | 119° |
| 2026-05-07 09:54 | 0.02682 | 105.41046 | 30699 ft | 466 kts | 119° |
| 2026-05-07 09:54 | 0.01055 | 105.43859 | 31011 ft | 468 kts | 119° |
| 2026-05-07 09:55 | -0.00555 | 105.46643 | 31329 ft | 470 kts | 119° |
| 2026-05-07 09:55 | -0.02193 | 105.49476 | 31617 ft | 472 kts | 119° |
| 2026-05-07 09:55 | -0.03841 | 105.52326 | 31928 ft | 475 kts | 119° |
| 2026-05-07 09:55 | -0.05495 | 105.55186 | 32222 ft | 477 kts | 119° |
| 2026-05-07 09:56 | -0.07157 | 105.58059 | 32524 ft | 479 kts | 119° |
| 2026-05-07 09:56 | -0.08828 | 105.60949 | 32818 ft | 481 kts | 119° |
| 2026-05-07 09:56 | -0.10505 | 105.63848 | 33113 ft | 483 kts | 119° |
| 2026-05-07 09:56 | -0.12191 | 105.66764 | 33396 ft | 486 kts | 119° |
| 2026-05-07 09:57 | -0.13883 | 105.69691 | 33678 ft | 488 kts | 119° |
| 2026-05-07 09:57 | -0.15586 | 105.72635 | 33956 ft | 490 kts | 119° |
| 2026-05-07 09:57 | -0.17294 | 105.75588 | 34191 ft | 492 kts | 119° |
| 2026-05-07 09:57 | -0.19011 | 105.78558 | 34435 ft | 495 kts | 119° |
| 2026-05-07 09:58 | -0.20734 | 105.81537 | 34724 ft | 496 kts | 120° |
| 2026-05-07 09:58 | -0.24200 | 105.87530 | 34779 ft | 499 kts | 120° |
| 2026-05-07 09:59 | -0.27674 | 105.93539 | 34794 ft | 500 kts | 120° |
| 2026-05-07 09:59 | -0.31156 | 105.99559 | 34794 ft | 500 kts | 120° |
| 2026-05-07 10:00 | -0.34634 | 106.05575 | 34795 ft | 500 kts | 120° |
| 2026-05-07 10:00 | -0.38115 | 106.11593 | 34782 ft | 500 kts | 120° |
| 2026-05-07 10:01 | -0.41590 | 106.17604 | 34779 ft | 500 kts | 120° |
| 2026-05-07 10:01 | -0.45043 | 106.23576 | 34777 ft | 500 kts | 120° |
| 2026-05-07 10:02 | -0.48522 | 106.29593 | 34776 ft | 500 kts | 120° |
| 2026-05-07 10:02 | -0.52002 | 106.35611 | 34785 ft | 500 kts | 120° |
| 2026-05-07 10:03 | -0.55480 | 106.41627 | 34794 ft | 500 kts | 120° |
| 2026-05-07 10:03 | -0.58961 | 106.47649 | 34794 ft | 501 kts | 120° |
| 2026-05-07 10:04 | -0.62773 | 106.53461 | 34775 ft | 501 kts | 128° |
| 2026-05-07 10:04 | -0.67376 | 106.58701 | 34773 ft | 502 kts | 131° |
| 2026-05-07 10:05 | -0.72002 | 106.63920 | 34780 ft | 502 kts | 131° |
| 2026-05-07 10:05 | -0.76625 | 106.69138 | 34789 ft | 502 kts | 131° |
| 2026-05-07 10:06 | -0.81257 | 106.74362 | 34804 ft | 502 kts | 131° |
| 2026-05-07 10:06 | -0.85885 | 106.79579 | 34807 ft | 502 kts | 131° |
| 2026-05-07 10:07 | -0.90485 | 106.84764 | 34800 ft | 502 kts | 131° |
| 2026-05-07 10:07 | -0.95115 | 106.89985 | 34785 ft | 502 kts | 131° |
| 2026-05-07 10:08 | -0.99773 | 106.95236 | 34792 ft | 502 kts | 131° |
| 2026-05-07 10:08 | -1.04371 | 107.00421 | 34793 ft | 502 kts | 131° |
| 2026-05-07 10:09 | -1.09001 | 107.05641 | 34789 ft | 502 kts | 131° |
| 2026-05-07 10:09 | -1.13630 | 107.10860 | 34785 ft | 502 kts | 131° |
| 2026-05-07 10:10 | -1.18258 | 107.16079 | 34783 ft | 502 kts | 131° |
| 2026-05-07 10:10 | -1.22887 | 107.21301 | 34796 ft | 502 kts | 131° |
| 2026-05-07 10:11 | -1.27515 | 107.26520 | 34791 ft | 502 kts | 131° |
| 2026-05-07 10:11 | -1.32144 | 107.31740 | 34787 ft | 502 kts | 131° |
| 2026-05-07 10:12 | -1.36771 | 107.36959 | 34786 ft | 502 kts | 131° |
| 2026-05-07 10:12 | -1.41342 | 107.42219 | 34783 ft | 502 kts | 130° |
| 2026-05-07 10:13 | -1.45891 | 107.47517 | 34788 ft | 502 kts | 130° |
| 2026-05-07 10:13 | -1.50448 | 107.52806 | 34793 ft | 502 kts | 130° |
| 2026-05-07 10:14 | -1.55017 | 107.58101 | 34792 ft | 503 kts | 130° |
| 2026-05-07 10:14 | -1.59586 | 107.63395 | 34791 ft | 503 kts | 130° |
| 2026-05-07 10:15 | -1.64158 | 107.68693 | 34809 ft | 503 kts | 130° |
| 2026-05-07 10:15 | -1.68732 | 107.73995 | 34814 ft | 503 kts | 130° |
| 2026-05-07 10:16 | -1.73305 | 107.79295 | 34814 ft | 503 kts | 130° |
| 2026-05-07 10:16 | -1.77876 | 107.84594 | 34813 ft | 503 kts | 130° |
| 2026-05-07 10:17 | -1.82445 | 107.89889 | 34813 ft | 503 kts | 130° |
| 2026-05-07 10:17 | -1.87012 | 107.95184 | 34799 ft | 503 kts | 130° |
| 2026-05-07 10:18 | -1.91574 | 108.00474 | 34800 ft | 502 kts | 130° |
| 2026-05-07 10:18 | -1.96138 | 108.05766 | 34799 ft | 502 kts | 130° |
| 2026-05-07 10:19 | -2.00696 | 108.11053 | 34791 ft | 502 kts | 130° |
| 2026-05-07 10:19 | -2.05257 | 108.16342 | 34796 ft | 502 kts | 130° |
| 2026-05-07 10:20 | -2.09820 | 108.21631 | 34799 ft | 502 kts | 130° |
| 2026-05-07 10:20 | -2.14380 | 108.26915 | 34799 ft | 502 kts | 130° |
| 2026-05-07 10:21 | -2.18942 | 108.32203 | 34801 ft | 502 kts | 130° |
| 2026-05-07 10:21 | -2.23499 | 108.37487 | 34799 ft | 502 kts | 130° |
| 2026-05-07 10:22 | -2.28057 | 108.42770 | 34807 ft | 502 kts | 130° |
| 2026-05-07 10:22 | -2.32614 | 108.48052 | 34809 ft | 501 kts | 130° |
| 2026-05-07 10:23 | -2.37165 | 108.53327 | 34805 ft | 501 kts | 129° |
| 2026-05-07 10:23 | -2.41713 | 108.58605 | 34803 ft | 501 kts | 129° |
| 2026-05-07 10:24 | -2.46263 | 108.63884 | 34799 ft | 501 kts | 130° |
| 2026-05-07 10:24 | -2.50818 | 108.69164 | 34801 ft | 501 kts | 130° |
| 2026-05-07 10:25 | -2.55383 | 108.74438 | 34800 ft | 502 kts | 130° |
| 2026-05-07 10:25 | -2.59950 | 108.79714 | 34802 ft | 502 kts | 130° |
| 2026-05-07 10:26 | -2.64521 | 108.84998 | 34808 ft | 502 kts | 130° |
| 2026-05-07 10:26 | -2.69118 | 108.90313 | 34822 ft | 502 kts | 130° |
| 2026-05-07 10:27 | -2.73686 | 108.95595 | 34812 ft | 502 kts | 130° |
| 2026-05-07 10:27 | -2.78248 | 109.00872 | 34827 ft | 501 kts | 130° |
| 2026-05-07 10:28 | -2.82773 | 109.06105 | 34814 ft | 500 kts | 130° |
| 2026-05-07 10:28 | -2.87348 | 109.11397 | 34808 ft | 499 kts | 130° |
| 2026-05-07 10:29 | -2.91886 | 109.16653 | 34802 ft | 499 kts | 130° |
| 2026-05-07 10:29 | -2.96411 | 109.21914 | 34802 ft | 498 kts | 130° |
| 2026-05-07 10:30 | -3.03193 | 109.29796 | 34799 ft | 498 kts | 130° |
| 2026-05-07 10:30 | -3.07715 | 109.35050 | 34801 ft | 498 kts | 130° |
| 2026-05-07 10:31 | -3.12208 | 109.40273 | 34805 ft | 498 kts | 130° |
| 2026-05-07 10:31 | -3.16730 | 109.45530 | 34807 ft | 498 kts | 130° |
| 2026-05-07 10:32 | -3.21249 | 109.50790 | 34815 ft | 498 kts | 130° |
| 2026-05-07 10:32 | -3.25776 | 109.56036 | 34809 ft | 498 kts | 130° |
| 2026-05-07 10:33 | -3.30331 | 109.61318 | 34806 ft | 498 kts | 129° |
| 2026-05-07 10:33 | -3.34832 | 109.66587 | 34810 ft | 498 kts | 129° |
| 2026-05-07 10:34 | -3.39322 | 109.71811 | 34810 ft | 498 kts | 130° |
| 2026-05-07 10:34 | -3.43866 | 109.77049 | 34808 ft | 498 kts | 130° |
| 2026-05-07 10:35 | -3.48387 | 109.82321 | 34809 ft | 499 kts | 129° |
| 2026-05-07 10:35 | -3.52911 | 109.87595 | 34809 ft | 500 kts | 129° |
| 2026-05-07 10:36 | -3.56703 | 109.92016 | 34809 ft | 500 kts | 129° |
| 2026-05-07 10:36 | -3.61238 | 109.97304 | 34815 ft | 501 kts | 129° |
| 2026-05-07 10:37 | -3.65785 | 110.02595 | 34822 ft | 501 kts | 130° |
| 2026-05-07 10:37 | -3.70330 | 110.07888 | 34831 ft | 501 kts | 129° |
| 2026-05-07 10:38 | -3.74871 | 110.13181 | 34818 ft | 501 kts | 129° |
| 2026-05-07 10:38 | -3.79382 | 110.18438 | 34822 ft | 501 kts | 130° |
| 2026-05-07 10:39 | -3.83919 | 110.23724 | 34816 ft | 501 kts | 130° |
| 2026-05-07 10:39 | -3.88481 | 110.29042 | 34830 ft | 500 kts | 130° |
| 2026-05-07 10:40 | -3.92980 | 110.34286 | 34827 ft | 499 kts | 130° |
| 2026-05-07 10:40 | -3.97473 | 110.39635 | 34821 ft | 498 kts | 126° |
| 2026-05-07 10:41 | -4.01663 | 110.45101 | 34819 ft | 497 kts | 127° |
| 2026-05-07 10:41 | -4.05926 | 110.50601 | 34816 ft | 496 kts | 127° |
| 2026-05-07 10:42 | -4.10108 | 110.56040 | 34821 ft | 495 kts | 127° |
| 2026-05-07 10:42 | -4.14356 | 110.61530 | 34825 ft | 495 kts | 127° |
| 2026-05-07 10:43 | -4.18546 | 110.66941 | 34824 ft | 495 kts | 127° |
| 2026-05-07 10:43 | -4.22764 | 110.72382 | 34820 ft | 494 kts | 127° |
| 2026-05-07 10:44 | -4.26972 | 110.77835 | 34814 ft | 495 kts | 127° |
| 2026-05-07 10:44 | -4.31168 | 110.83304 | 34818 ft | 495 kts | 127° |
| 2026-05-07 10:45 | -4.35387 | 110.88763 | 34819 ft | 496 kts | 127° |
| 2026-05-07 10:45 | -4.39608 | 110.94230 | 34817 ft | 496 kts | 127° |
| 2026-05-07 10:46 | -4.43832 | 110.99703 | 34825 ft | 497 kts | 127° |
| 2026-05-07 10:46 | -4.48048 | 111.05197 | 34823 ft | 498 kts | 127° |
| 2026-05-07 10:47 | -4.52278 | 111.10699 | 34830 ft | 499 kts | 127° |
| 2026-05-07 10:47 | -4.56522 | 111.16210 | 34825 ft | 500 kts | 127° |
| 2026-05-07 10:48 | -4.60773 | 111.21730 | 34831 ft | 500 kts | 127° |
| 2026-05-07 10:48 | -4.65036 | 111.27247 | 34832 ft | 501 kts | 127° |
| 2026-05-07 10:49 | -4.69315 | 111.32762 | 34838 ft | 501 kts | 127° |
| 2026-05-07 10:49 | -4.73597 | 111.38284 | 34833 ft | 502 kts | 127° |
| 2026-05-07 10:50 | -4.77874 | 111.43803 | 34829 ft | 502 kts | 127° |
| 2026-05-07 10:50 | -4.82156 | 111.49333 | 34823 ft | 502 kts | 127° |
| 2026-05-07 10:51 | -4.86440 | 111.54866 | 34823 ft | 502 kts | 127° |
| 2026-05-07 10:51 | -4.90727 | 111.60403 | 34827 ft | 503 kts | 128° |
| 2026-05-07 10:52 | -4.95015 | 111.65943 | 34821 ft | 503 kts | 128° |
| 2026-05-07 10:52 | -4.99309 | 111.71493 | 34827 ft | 504 kts | 128° |
| 2026-05-07 10:53 | -5.03607 | 111.77048 | 34821 ft | 505 kts | 128° |
| 2026-05-07 10:53 | -5.07912 | 111.82614 | 34825 ft | 505 kts | 128° |
| 2026-05-07 10:54 | -5.12217 | 111.88182 | 34832 ft | 506 kts | 128° |
| 2026-05-07 10:54 | -5.16502 | 111.93724 | 34832 ft | 506 kts | 128° |
| 2026-05-07 10:55 | -5.20815 | 111.99305 | 34830 ft | 506 kts | 128° |
| 2026-05-07 10:55 | -5.25129 | 112.04889 | 34824 ft | 506 kts | 128° |
| 2026-05-07 10:56 | -5.29443 | 112.10473 | 34824 ft | 506 kts | 128° |
| 2026-05-07 10:56 | -5.33757 | 112.16060 | 34824 ft | 506 kts | 128° |
| 2026-05-07 10:57 | -5.38068 | 112.21644 | 34823 ft | 506 kts | 128° |
| 2026-05-07 10:57 | -5.42380 | 112.27230 | 34828 ft | 506 kts | 128° |
| 2026-05-07 10:58 | -5.46695 | 112.32821 | 34829 ft | 506 kts | 128° |
| 2026-05-07 10:58 | -5.50980 | 112.38375 | 34822 ft | 507 kts | 128° |
| 2026-05-07 10:59 | -5.55294 | 112.43969 | 34823 ft | 507 kts | 128° |
| 2026-05-07 10:59 | -5.59616 | 112.49559 | 34828 ft | 507 kts | 128° |
| 2026-05-07 11:00 | -5.63932 | 112.55153 | 34829 ft | 507 kts | 128° |
| 2026-05-07 11:00 | -5.68240 | 112.60758 | 34829 ft | 507 kts | 128° |
| 2026-05-07 11:01 | -5.72554 | 112.66363 | 34824 ft | 508 kts | 128° |
| 2026-05-07 11:01 | -5.76873 | 112.71971 | 34830 ft | 508 kts | 128° |
| 2026-05-07 11:02 | -5.81169 | 112.77549 | 34829 ft | 508 kts | 128° |
| 2026-05-07 11:02 | -5.85490 | 112.83163 | 34829 ft | 508 kts | 128° |
| 2026-05-07 11:03 | -5.89810 | 112.88777 | 34828 ft | 508 kts | 128° |
| 2026-05-07 11:03 | -5.94131 | 112.94393 | 34827 ft | 508 kts | 128° |
| 2026-05-07 11:04 | -5.98452 | 113.00012 | 34845 ft | 508 kts | 128° |
| 2026-05-07 11:04 | -6.02770 | 113.05628 | 34830 ft | 508 kts | 128° |
| 2026-05-07 11:05 | -6.07096 | 113.11255 | 34846 ft | 508 kts | 128° |
| 2026-05-07 11:05 | -6.11412 | 113.16871 | 34842 ft | 508 kts | 128° |
| 2026-05-07 11:06 | -6.15732 | 113.22495 | 34843 ft | 508 kts | 128° |
| 2026-05-07 11:06 | -6.20022 | 113.28081 | 34844 ft | 508 kts | 128° |
| 2026-05-07 11:07 | -6.24519 | 113.33538 | 34822 ft | 507 kts | 135° |
| 2026-05-07 11:07 | -6.29881 | 113.38117 | 34827 ft | 506 kts | 146° |
| 2026-05-07 11:08 | -6.35610 | 113.42222 | 34830 ft | 506 kts | 145° |
| 2026-05-07 11:08 | -6.41324 | 113.46358 | 34832 ft | 506 kts | 145° |
| 2026-05-07 11:09 | -6.47042 | 113.50491 | 34872 ft | 509 kts | 145° |
| 2026-05-07 11:09 | -6.49921 | 113.52570 | 35229 ft | 508 kts | 145° |
| 2026-05-07 11:09 | -6.52790 | 113.54642 | 35652 ft | 507 kts | 145° |
| 2026-05-07 11:10 | -6.55649 | 113.56707 | 36047 ft | 506 kts | 145° |
| 2026-05-07 11:10 | -6.58505 | 113.58771 | 36450 ft | 505 kts | 145° |
| 2026-05-07 11:10 | -6.61359 | 113.60832 | 36765 ft | 506 kts | 145° |
| 2026-05-07 11:10 | -6.64220 | 113.62902 | 36833 ft | 503 kts | 145° |
| 2026-05-07 11:11 | -6.69888 | 113.66987 | 36843 ft | 502 kts | 145° |
| 2026-05-07 11:11 | -6.75568 | 113.71085 | 36838 ft | 502 kts | 145° |
| 2026-05-07 11:12 | -6.81246 | 113.75200 | 36841 ft | 503 kts | 145° |
| 2026-05-07 11:12 | -6.86916 | 113.79311 | 36836 ft | 503 kts | 145° |
| 2026-05-07 11:13 | -6.92593 | 113.83420 | 36837 ft | 502 kts | 145° |
| 2026-05-07 11:13 | -6.98266 | 113.87527 | 36833 ft | 502 kts | 145° |
| 2026-05-07 11:14 | -7.03937 | 113.91635 | 36828 ft | 502 kts | 145° |
| 2026-05-07 11:14 | -7.09613 | 113.95751 | 36826 ft | 503 kts | 145° |
| 2026-05-07 11:15 | -7.15290 | 113.99869 | 36829 ft | 503 kts | 145° |
| 2026-05-07 11:15 | -7.20970 | 114.03990 | 36834 ft | 504 kts | 145° |
| 2026-05-07 11:16 | -7.26654 | 114.08115 | 36837 ft | 504 kts | 145° |
| 2026-05-07 11:16 | -7.32346 | 114.12248 | 36836 ft | 504 kts | 145° |
| 2026-05-07 11:17 | -7.38041 | 114.16384 | 36845 ft | 505 kts | 145° |
| 2026-05-07 11:17 | -7.43741 | 114.20525 | 36840 ft | 505 kts | 145° |
| 2026-05-07 11:18 | -7.49444 | 114.24669 | 36849 ft | 505 kts | 145° |
| 2026-05-07 11:18 | -7.55147 | 114.28816 | 36849 ft | 506 kts | 145° |
| 2026-05-07 11:19 | -7.60851 | 114.32963 | 36848 ft | 505 kts | 145° |
| 2026-05-07 11:19 | -7.66549 | 114.37108 | 36856 ft | 505 kts | 145° |
| 2026-05-07 11:20 | -7.72250 | 114.41257 | 36858 ft | 505 kts | 145° |
| 2026-05-07 11:20 | -7.77948 | 114.45405 | 36856 ft | 505 kts | 145° |
| 2026-05-07 11:21 | -7.83643 | 114.49552 | 36864 ft | 505 kts | 145° |
| 2026-05-07 11:21 | -7.89338 | 114.53700 | 36862 ft | 505 kts | 145° |
| 2026-05-07 11:22 | -7.95028 | 114.57847 | 36864 ft | 505 kts | 145° |
| 2026-05-07 11:22 | -8.00718 | 114.61995 | 36861 ft | 505 kts | 145° |
| 2026-05-07 11:23 | -8.05445 | 114.65441 | 36859 ft | 505 kts | 145° |
| 2026-05-07 11:23 | -8.11136 | 114.69593 | 36868 ft | 505 kts | 145° |
| 2026-05-07 11:24 | -8.16824 | 114.73743 | 36866 ft | 505 kts | 145° |
| 2026-05-07 11:24 | -8.22514 | 114.77897 | 36872 ft | 505 kts | 145° |
| 2026-05-07 11:25 | -8.28209 | 114.82054 | 36880 ft | 505 kts | 145° |
| 2026-05-07 11:25 | -8.33899 | 114.86211 | 36881 ft | 505 kts | 145° |
| 2026-05-07 11:26 | -8.39593 | 114.90372 | 36890 ft | 505 kts | 145° |
| 2026-05-07 11:26 | -8.45281 | 114.94529 | 36896 ft | 505 kts | 145° |
| 2026-05-07 11:27 | -8.50970 | 114.98690 | 36888 ft | 505 kts | 145° |
| 2026-05-07 11:27 | -8.56654 | 115.02849 | 36890 ft | 504 kts | 146° |
| 2026-05-07 11:28 | -8.62331 | 115.07004 | 36888 ft | 504 kts | 146° |
| 2026-05-07 11:28 | -8.68009 | 115.11160 | 36882 ft | 503 kts | 146° |
| 2026-05-07 11:29 | -8.73677 | 115.15315 | 36877 ft | 503 kts | 144° |
| 2026-05-07 11:29 | -8.78949 | 115.19978 | 36877 ft | 504 kts | 138° |
| 2026-05-07 11:30 | -8.84091 | 115.24812 | 36875 ft | 504 kts | 139° |
| 2026-05-07 11:30 | -8.89238 | 115.29635 | 36869 ft | 505 kts | 139° |
| 2026-05-07 11:31 | -8.94386 | 115.34468 | 36873 ft | 505 kts | 139° |
| 2026-05-07 11:31 | -8.99535 | 115.39305 | 36877 ft | 506 kts | 139° |
| 2026-05-07 11:32 | -9.07272 | 115.46578 | 36875 ft | 506 kts | 139° |
| 2026-05-07 11:33 | -9.12436 | 115.51437 | 36886 ft | 507 kts | 139° |
| 2026-05-07 11:33 | -9.17600 | 115.56296 | 36884 ft | 507 kts | 139° |
| 2026-05-07 11:34 | -9.22767 | 115.61161 | 36886 ft | 508 kts | 139° |
| 2026-05-07 11:34 | -9.27940 | 115.66033 | 36887 ft | 508 kts | 139° |
| 2026-05-07 11:35 | -9.33110 | 115.70905 | 36887 ft | 508 kts | 139° |
| 2026-05-07 11:35 | -9.38283 | 115.75781 | 36885 ft | 508 kts | 139° |
| 2026-05-07 11:36 | -9.43450 | 115.80653 | 36887 ft | 508 kts | 139° |
| 2026-05-07 11:36 | -9.48615 | 115.85526 | 36890 ft | 507 kts | 139° |
| 2026-05-07 11:37 | -9.53778 | 115.90399 | 36890 ft | 507 kts | 139° |
| 2026-05-07 11:37 | -9.58935 | 115.95268 | 36889 ft | 507 kts | 139° |
| 2026-05-07 11:38 | -9.64090 | 116.00138 | 36894 ft | 506 kts | 139° |
| 2026-05-07 11:38 | -9.69238 | 116.05003 | 36891 ft | 506 kts | 139° |
| 2026-05-07 11:39 | -9.74388 | 116.09873 | 36888 ft | 506 kts | 139° |
| 2026-05-07 11:39 | -9.79527 | 116.14734 | 36891 ft | 505 kts | 139° |
| 2026-05-07 11:40 | -9.84670 | 116.19601 | 36887 ft | 505 kts | 139° |
| 2026-05-07 11:40 | -9.89807 | 116.24464 | 36884 ft | 505 kts | 139° |
| 2026-05-07 11:41 | -9.94944 | 116.29330 | 36891 ft | 505 kts | 139° |
| 2026-05-07 11:41 | -10.00080 | 116.34197 | 36893 ft | 505 kts | 139° |
| 2026-05-07 11:42 | -10.05219 | 116.39069 | 36893 ft | 505 kts | 139° |
| 2026-05-07 11:42 | -10.10357 | 116.43943 | 36895 ft | 505 kts | 139° |
| 2026-05-07 11:43 | -10.15494 | 116.48817 | 36900 ft | 505 kts | 139° |
| 2026-05-07 11:43 | -10.20628 | 116.53690 | 36898 ft | 505 kts | 139° |
| 2026-05-07 11:44 | -10.25762 | 116.58566 | 36899 ft | 505 kts | 139° |
| 2026-05-07 11:44 | -10.30892 | 116.63442 | 36903 ft | 505 kts | 139° |
| 2026-05-07 11:45 | -10.36023 | 116.68320 | 36904 ft | 505 kts | 139° |
| 2026-05-07 11:45 | -10.41148 | 116.73194 | 36905 ft | 505 kts | 139° |
| 2026-05-07 11:46 | -10.46269 | 116.78067 | 36901 ft | 504 kts | 139° |
| 2026-05-07 11:46 | -10.51389 | 116.82941 | 36902 ft | 504 kts | 139° |
| 2026-05-07 11:47 | -10.56507 | 116.87816 | 36901 ft | 504 kts | 139° |
| 2026-05-07 11:47 | -10.61628 | 116.92696 | 36906 ft | 504 kts | 139° |
| 2026-05-07 11:48 | -10.66746 | 116.97576 | 36903 ft | 504 kts | 139° |
| 2026-05-07 11:48 | -10.71865 | 117.02459 | 36904 ft | 505 kts | 139° |
| 2026-05-07 11:49 | -10.76985 | 117.07345 | 36907 ft | 505 kts | 140° |
| 2026-05-07 11:49 | -10.82108 | 117.12236 | 36903 ft | 505 kts | 140° |
| 2026-05-07 11:50 | -10.87231 | 117.17130 | 36908 ft | 505 kts | 139° |
| 2026-05-07 11:50 | -10.92357 | 117.22029 | 36914 ft | 506 kts | 139° |
| 2026-05-07 11:51 | -10.97483 | 117.26930 | 36914 ft | 506 kts | 139° |
| 2026-05-07 11:51 | -11.02614 | 117.31839 | 36914 ft | 506 kts | 140° |
| 2026-05-07 11:52 | -11.07742 | 117.36747 | 36920 ft | 506 kts | 140° |
| 2026-05-07 11:52 | -11.12872 | 117.41660 | 36918 ft | 506 kts | 140° |
| 2026-05-07 11:53 | -11.18000 | 117.46574 | 36920 ft | 506 kts | 140° |
| 2026-05-07 11:53 | -11.23130 | 117.51492 | 36920 ft | 506 kts | 140° |
| 2026-05-07 11:54 | -11.28261 | 117.56413 | 36920 ft | 507 kts | 140° |
| 2026-05-07 11:54 | -11.33389 | 117.61334 | 36922 ft | 507 kts | 140° |
| 2026-05-07 11:55 | -11.38521 | 117.66260 | 36921 ft | 507 kts | 140° |
| 2026-05-07 11:55 | -11.43651 | 117.71189 | 36924 ft | 507 kts | 140° |
| 2026-05-07 11:56 | -11.48780 | 117.76119 | 36925 ft | 507 kts | 140° |
| 2026-05-07 11:56 | -11.53915 | 117.81056 | 36926 ft | 507 kts | 140° |
| 2026-05-07 11:57 | -11.59009 | 117.85957 | 36929 ft | 507 kts | 140° |
| 2026-05-07 11:57 | -11.64142 | 117.90899 | 36928 ft | 507 kts | 140° |
| 2026-05-07 11:58 | -11.69276 | 117.95843 | 36929 ft | 507 kts | 140° |
| 2026-05-07 11:58 | -11.74407 | 118.00787 | 36926 ft | 508 kts | 140° |
| 2026-05-07 11:59 | -11.79542 | 118.05739 | 36931 ft | 508 kts | 140° |
| 2026-05-07 11:59 | -11.84677 | 118.10692 | 36933 ft | 508 kts | 140° |
| 2026-05-07 12:00 | -11.89814 | 118.15651 | 36932 ft | 508 kts | 140° |
| 2026-05-07 12:00 | -11.94955 | 118.20614 | 36928 ft | 509 kts | 140° |
| 2026-05-07 12:01 | -12.00096 | 118.25579 | 36931 ft | 509 kts | 140° |
| 2026-05-07 12:01 | -12.05146 | 118.30469 | 36933 ft | 509 kts | 140° |
| 2026-05-07 12:02 | -12.10290 | 118.35450 | 36936 ft | 510 kts | 140° |
| 2026-05-07 12:02 | -12.15441 | 118.40435 | 36938 ft | 510 kts | 140° |
| 2026-05-07 12:03 | -12.20598 | 118.45428 | 36945 ft | 512 kts | 140° |
| 2026-05-07 12:03 | -12.23187 | 118.47934 | 37263 ft | 513 kts | 140° |
| 2026-05-07 12:03 | -12.25771 | 118.50438 | 37666 ft | 511 kts | 140° |
| 2026-05-07 12:03 | -12.28354 | 118.52941 | 38077 ft | 511 kts | 140° |
| 2026-05-07 12:04 | -12.30894 | 118.55404 | 38468 ft | 510 kts | 139° |
| 2026-05-07 12:04 | -12.33466 | 118.57898 | 38798 ft | 509 kts | 139° |
| 2026-05-07 12:04 | -12.35205 | 118.59585 | 38910 ft | 512 kts | 139° |
| 2026-05-07 12:05 | -12.41168 | 118.65374 | 38950 ft | 507 kts | 139° |
| 2026-05-07 12:05 | -12.45510 | 118.69586 | 38946 ft | 519 kts | 139° |
| 2026-05-07 12:06 | -12.50760 | 118.74689 | 38952 ft | 518 kts | 139° |